Time;durP1;ratioP1;P1;durP2;ratioP2;P2;SDS_P1;SDS_P2;PMS_P1;PMS_P2;Temp;Humidity;BMP_temperature;BMP_pressure;BME280_temperature;BME280_humidity;BME280_pressure;Samples;Min_cycle;Max_cycle;Signal;HPM_P1;HPM_P2
2021/05/07 00:01:47;;;;;;;4.00;2.23;;;;;;;14.11;100.00;96136.34;5133483;27;20675;-82
2021/05/07 00:04:17;;;;;;;3.47;2.30;;;;;;;14.12;100.00;96134.50;5132816;27;20322;-83
2021/05/07 00:06:45;;;;;;;3.73;3.43;;;;;;;14.06;100.00;96127.31;5133138;27;20179;-83
2021/05/07 00:09:13;;;;;;;3.47;2.73;;;;;;;14.18;100.00;96131.13;5133133;27;20234;-83
2021/05/07 00:11:40;;;;;;;6.20;2.03;;;;;;;14.03;100.00;96124.06;5133340;27;20227;-83
2021/05/07 00:14:07;;;;;;;2.80;2.60;;;;;;;13.96;100.00;96125.78;5133238;27;20198;-83
2021/05/07 00:16:33;;;;;;;3.17;2.83;;;;;;;14.02;100.00;96111.81;5132965;27;20281;-83
2021/05/07 00:19:00;;;;;;;2.60;2.23;;;;;;;14.07;100.00;96124.50;5132882;27;20199;-83
2021/05/07 00:21:27;;;;;;;4.03;2.30;;;;;;;14.03;100.00;96116.13;5133087;27;20202;-83
2021/05/07 00:23:54;;;;;;;2.30;1.87;;;;;;;14.01;100.00;96118.13;5132943;27;20202;-83
2021/05/07 00:26:22;;;;;;;2.50;2.30;;;;;;;13.74;100.00;96119.56;5132806;27;20222;-83
2021/05/07 00:28:49;;;;;;;4.40;2.10;;;;;;;13.53;100.00;96091.25;5132898;27;20741;-83
2021/05/07 00:31:17;;;;;;;2.10;1.90;;;;;;;13.73;100.00;96104.72;5132892;27;20286;-83
2021/05/07 00:33:43;;;;;;;5.43;2.07;;;;;;;13.63;100.00;96106.00;5132887;27;20197;-83
2021/05/07 00:36:10;;;;;;;2.13;1.93;;;;;;;13.78;100.00;96112.09;5132867;27;20190;-83
2021/05/07 00:38:37;;;;;;;4.70;1.90;;;;;;;13.78;100.00;96110.28;5132970;27;20233;-83
2021/05/07 00:41:04;;;;;;;1.80;1.70;;;;;;;13.68;100.00;96108.91;5133249;27;20289;-84
2021/05/07 00:43:32;;;;;;;2.50;1.97;;;;;;;13.72;100.00;96097.81;5133308;27;20662;-83
2021/05/07 00:45:59;;;;;;;2.20;2.00;;;;;;;13.70;100.00;96094.53;5133001;27;20223;-84
2021/05/07 00:48:26;;;;;;;2.97;2.60;;;;;;;13.71;100.00;96090.88;5132685;27;20321;-83
2021/05/07 00:50:53;;;;;;;20.30;15.47;;;;;;;13.71;100.00;96098.81;5132968;27;20547;-83
2021/05/07 00:53:22;;;;;;;174.37;141.70;;;;;;;13.31;100.00;96098.25;5132859;27;20249;-83
2021/05/07 00:55:48;;;;;;;109.93;95.87;;;;;;;13.43;100.00;96085.41;5132515;27;20195;-83
2021/05/07 00:58:15;;;;;;;18.30;16.47;;;;;;;13.58;100.00;96088.06;5132523;27;20195;-83
2021/05/07 01:00:43;;;;;;;5.77;4.50;;;;;;;13.62;100.00;96094.63;5132954;27;20195;-83
2021/05/07 01:03:10;;;;;;;10.83;9.27;;;;;;;13.46;100.00;96085.03;5132607;27;20234;-83
2021/05/07 01:05:37;;;;;;;43.27;39.40;;;;;;;13.59;100.00;96086.25;5132188;27;20239;-82
2021/05/07 01:08:04;;;;;;;54.33;49.10;;;;;;;13.59;100.00;96096.81;5136039;27;20234;-82
2021/05/07 01:10:31;;;;;;;49.93;44.87;;;;;;;13.69;100.00;96100.81;5136241;27;20251;-82
2021/05/07 01:12:58;;;;;;;21.90;19.80;;;;;;;13.52;100.00;96097.53;5136077;27;20203;-82
2021/05/07 01:15:26;;;;;;;35.73;28.67;;;;;;;13.40;100.00;96098.97;5136290;27;20623;-82
2021/05/07 01:17:55;;;;;;;14.17;12.73;;;;;;;13.40;100.00;96096.31;5136045;27;21020;-82
2021/05/07 01:20:26;;;;;;;29.33;26.37;;;;;;;13.21;100.00;96086.28;5136428;27;20206;-83
2021/05/07 01:22:54;;;;;;;22.13;19.93;;;;;;;12.95;100.00;96079.53;5135964;27;20278;-82
2021/05/07 01:25:23;;;;;;;30.23;27.23;;;;;;;13.04;100.00;96067.13;5135983;27;20223;-84
2021/05/07 01:27:52;;;;;;;45.43;40.53;;;;;;;12.80;100.00;96053.13;5136141;27;20662;-83
2021/05/07 01:30:21;;;;;;;8.00;7.20;;;;;;;12.84;100.00;96043.88;5136072;27;20339;-84
2021/05/07 01:32:49;;;;;;;44.80;38.17;;;;;;;13.01;100.00;96041.91;5135832;27;20201;-83
2021/05/07 01:35:19;;;;;;;38.20;30.57;;;;;;;13.03;100.00;96041.75;5136104;27;20297;-83
2021/05/07 01:37:48;;;;;;;12.70;11.40;;;;;;;13.20;100.00;96039.78;5135688;27;20191;-83
2021/05/07 01:40:18;;;;;;;20.83;16.50;;;;;;;13.19;100.00;96046.84;5136052;27;20252;-83
2021/05/07 01:42:46;;;;;;;6.53;4.77;;;;;;;13.21;100.00;96046.69;5135706;27;20293;-83
2021/05/07 01:45:14;;;;;;;2.80;2.57;;;;;;;13.09;100.00;96054.19;5135605;27;20789;-83
2021/05/07 01:47:41;;;;;;;6.10;3.50;;;;;;;12.41;100.00;96047.19;5135975;27;20694;-83
2021/05/07 01:50:11;;;;;;;3.20;2.70;;;;;;;12.09;100.00;96007.69;5135963;27;20226;-84
2021/05/07 01:52:38;;;;;;;2.83;2.63;;;;;;;12.03;100.00;95968.88;5135324;27;20640;-83
2021/05/07 01:55:08;;;;;;;3.20;2.90;;;;;;;12.13;100.00;95972.09;5135735;27;20194;-83
2021/05/07 01:57:36;;;;;;;3.27;2.67;;;;;;;11.98;100.00;95957.22;5135481;27;20596;-83
2021/05/07 02:00:06;;;;;;;3.03;2.73;;;;;;;12.06;100.00;95952.72;5132909;27;20620;-84
2021/05/07 02:02:32;;;;;;;3.00;2.73;;;;;;;12.27;100.00;95959.16;5134800;27;20268;-86
2021/05/07 02:04:59;;;;;;;3.50;2.57;;;;;;;12.53;100.00;95978.03;5135756;27;20638;-84
2021/05/07 02:07:27;;;;;;;2.53;2.33;;;;;;;12.33;100.00;95972.47;5135368;27;20199;-82
2021/05/07 02:09:54;;;;;;;3.07;2.50;;;;;;;12.45;100.00;95967.56;5134828;27;20194;-82
2021/05/07 02:12:22;;;;;;;2.80;2.60;;;;;;;12.41;100.00;95958.41;5134709;27;20191;-84
2021/05/07 02:14:49;;;;;;;7.27;4.00;;;;;;;12.33;100.00;95946.09;5134624;27;20236;-83
2021/05/07 02:17:16;;;;;;;2.70;2.40;;;;;;;12.49;100.00;95947.78;5136105;27;20230;-83
2021/05/07 02:19:43;;;;;;;2.50;2.30;;;;;;;12.67;100.00;95949.25;5146256;27;20216;-83
2021/05/07 02:22:11;;;;;;;2.57;2.37;;;;;;;12.88;100.00;95964.38;5134956;27;20198;-83
2021/05/07 02:24:38;;;;;;;3.00;2.37;;;;;;;12.84;100.00;95975.28;5134601;27;20239;-83
2021/05/07 02:27:05;;;;;;;3.43;2.47;;;;;;;12.74;100.00;95977.38;5134933;27;20195;-83
2021/05/07 02:29:33;;;;;;;2.60;2.40;;;;;;;12.72;100.00;95968.03;5134779;27;20713;-83
2021/05/07 02:32:00;;;;;;;3.17;2.50;;;;;;;12.65;100.00;95975.81;5134787;27;20410;-83
2021/05/07 02:34:26;;;;;;;2.53;2.13;;;;;;;12.58;100.00;95973.06;5134882;27;20254;-84
2021/05/07 02:36:53;;;;;;;5.33;2.50;;;;;;;12.65;100.00;95959.19;5134732;27;20282;-83
2021/05/07 02:39:20;;;;;;;6.90;6.10;;;;;;;12.76;100.00;95962.19;5134633;27;20201;-83
2021/05/07 02:41:47;;;;;;;23.00;14.80;;;;;;;12.79;100.00;95964.47;5134674;27;20233;-83
2021/05/07 02:44:14;;;;;;;132.60;75.97;;;;;;;12.59;100.00;95964.16;5134726;27;20233;-83
2021/05/07 02:46:42;;;;;;;12.50;8.97;;;;;;;12.84;100.00;95972.66;5134384;27;20310;-83
2021/05/07 02:49:09;;;;;;;27.57;20.53;;;;;;;12.64;100.00;95984.72;5134576;27;20224;-83
2021/05/07 02:51:36;;;;;;;17.47;12.03;;;;;;;12.49;100.00;95971.50;5134747;27;20681;-83
2021/05/07 02:54:03;;;;;;;6.60;3.97;;;;;;;12.39;100.00;95949.84;5134613;27;20548;-83
2021/05/07 02:56:30;;;;;;;2.97;2.77;;;;;;;12.54;100.00;95945.44;5134337;27;20230;-83
2021/05/07 02:58:57;;;;;;;3.70;2.53;;;;;;;12.72;100.00;95960.91;5134415;27;20191;-83
2021/05/07 03:01:24;;;;;;;3.90;2.63;;;;;;;12.54;100.00;95953.34;5134191;27;20237;-84
2021/05/07 03:03:52;;;;;;;6.00;3.10;;;;;;;12.21;100.00;95936.97;5134103;27;20655;-83
2021/05/07 03:06:19;;;;;;;3.23;2.23;;;;;;;12.17;100.00;95919.06;5134127;27;20659;-84
2021/05/07 03:08:46;;;;;;;4.97;2.73;;;;;;;12.22;100.00;95908.81;5134200;27;20277;-83
2021/05/07 03:11:12;;;;;;;5.70;2.83;;;;;;;11.96;100.00;95906.56;5133921;27;20191;-83
2021/05/07 03:13:39;;;;;;;19.93;14.53;;;;;;;12.08;100.00;95892.78;5133902;27;20197;-83
2021/05/07 03:16:06;;;;;;;23.43;18.13;;;;;;;12.12;100.00;95911.66;5133716;27;20194;-83
2021/05/07 03:18:33;;;;;;;20.30;15.77;;;;;;;12.19;100.00;95899.44;5133825;27;20234;-83
2021/05/07 03:21:01;;;;;;;13.07;9.63;;;;;;;12.27;100.00;95912.56;5134156;27;20612;-84
2021/05/07 03:23:28;;;;;;;6.03;5.10;;;;;;;11.80;100.00;95910.88;5133742;27;20289;-83
2021/05/07 03:25:54;;;;;;;5.20;4.70;;;;;;;11.88;100.00;95883.69;5133609;27;20318;-83
2021/05/07 03:28:21;;;;;;;4.23;3.70;;;;;;;12.22;100.00;95885.09;5133569;27;20247;-83
2021/05/07 03:30:48;;;;;;;3.47;2.90;;;;;;;12.08;100.00;95894.59;5133295;27;20197;-83
2021/05/07 03:33:15;;;;;;;3.10;2.90;;;;;;;12.31;100.00;95894.56;5133629;27;20198;-83
2021/05/07 03:35:42;;;;;;;3.80;3.50;;;;;;;12.12;100.00;95896.72;5133891;27;20552;-83
2021/05/07 03:38:10;;;;;;;3.10;2.90;;;;;;;12.08;100.00;95881.41;5133382;27;20198;-83
2021/05/07 03:40:37;;;;;;;5.03;3.43;;;;;;;12.32;100.00;95896.19;5133446;27;20244;-83
2021/05/07 03:43:03;;;;;;;3.83;3.37;;;;;;;12.32;100.00;95897.00;5133376;27;20197;-83
2021/05/07 03:45:30;;;;;;;2.60;2.40;;;;;;;12.55;100.00;95909.34;5133689;27;20274;-83
2021/05/07 03:47:57;;;;;;;6.07;4.17;;;;;;;12.36;100.00;95922.03;5133200;27;20201;-83
2021/05/07 03:50:24;;;;;;;14.57;10.37;;;;;;;12.32;100.00;95935.72;5133432;27;20197;-83
2021/05/07 03:52:51;;;;;;;43.67;33.30;;;;;;;12.16;100.00;95922.69;5133236;27;20198;-83
2021/05/07 03:55:19;;;;;;;35.80;26.40;;;;;;;11.83;100.00;95905.28;5133648;27;20222;-83
2021/05/07 03:57:46;;;;;;;20.50;15.17;;;;;;;12.05;100.00;95893.16;5133065;27;20191;-83
2021/05/07 04:00:14;;;;;;;11.27;10.13;;;;;;;11.91;100.00;95883.34;5133675;27;20566;-83
2021/05/07 04:02:41;;;;;;;18.43;15.80;;;;;;;11.76;100.00;95864.84;5133138;27;20276;-83
2021/05/07 04:05:09;;;;;;;14.13;12.73;;;;;;;11.85;100.00;95841.94;5133035;27;20314;-84
2021/05/07 04:07:36;;;;;;;12.57;11.30;;;;;;;12.11;100.00;95842.38;5132965;27;20265;-83
2021/05/07 04:10:07;;;;;;;13.80;7.50;;;;;;;12.17;100.00;95840.84;5133185;28;20206;-84
2021/05/07 04:15:20;;;;;;;4.77;4.37;;;;;;;12.23;100.00;95853.31;5133436;28;20179;-83
2021/05/07 04:17:47;;;;;;;3.93;3.53;;;;;;;12.33;100.00;95845.13;5132755;27;20201;-83
2021/05/07 04:20:14;;;;;;;5.00;3.13;;;;;;;12.38;100.00;95851.50;5133100;27;20247;-83
2021/05/07 04:22:41;;;;;;;4.43;3.23;;;;;;;12.28;100.00;95848.31;5132999;27;20230;-83
2021/05/07 04:25:10;;;;;;;3.97;3.57;;;;;;;12.37;100.00;95835.88;5132941;27;20793;-83
2021/05/07 04:27:39;;;;;;;3.67;3.47;;;;;;;12.39;100.00;95825.97;5132793;27;20199;-83
2021/05/07 04:30:07;;;;;;;4.10;3.80;;;;;;;12.44;100.00;95839.44;5133053;27;20257;-83
2021/05/07 04:32:34;;;;;;;8.07;6.77;;;;;;;12.14;100.00;95830.66;5132984;27;20733;-83
2021/05/07 04:35:01;;;;;;;10.90;8.40;;;;;;;12.35;100.00;95819.44;5133258;27;20201;-83
2021/05/07 04:37:28;;;;;;;19.73;17.53;;;;;;;12.40;100.00;95835.53;5132763;27;20201;-82
2021/05/07 04:39:55;;;;;;;9.23;8.33;;;;;;;12.47;100.00;95841.72;5132883;27;20199;-82
2021/05/07 04:42:22;;;;;;;5.80;5.20;;;;;;;12.79;100.00;95860.81;5136951;27;20234;-83
2021/05/07 04:44:49;;;;;;;5.70;4.27;;;;;;;12.67;100.00;95867.53;5137004;27;20191;-83
2021/05/07 04:47:16;;;;;;;5.57;3.90;;;;;;;12.64;100.00;95862.59;5137014;27;20338;-83
2021/05/07 04:49:44;;;;;;;3.53;3.23;;;;;;;12.68;100.00;95856.81;5136905;27;20226;-83
2021/05/07 04:52:11;;;;;;;3.80;3.50;;;;;;;12.82;100.00;95869.19;5136105;27;20570;-83
2021/05/07 04:54:37;;;;;;;4.93;3.70;;;;;;;12.95;100.00;95884.34;5136058;27;20670;-83
2021/05/07 04:57:04;;;;;;;6.27;4.40;;;;;;;13.08;100.00;95866.06;5136266;27;20689;-84
2021/05/07 04:59:33;;;;;;;7.03;3.50;;;;;;;13.07;100.00;95860.97;5136005;27;20227;-84
2021/05/07 05:02:00;;;;;;;2.87;2.67;;;;;;;13.32;100.00;95866.78;5136345;27;20282;-84
2021/05/07 05:04:27;;;;;;;3.83;3.00;;;;;;;13.38;100.00;95865.22;5135905;27;20317;-84
2021/05/07 05:06:54;;;;;;;5.33;4.03;;;;;;;13.59;100.00;95875.81;5135869;27;20733;-84
2021/05/07 05:09:21;;;;;;;8.93;4.20;;;;;;;13.74;100.00;95873.13;5136210;27;20222;-84
2021/05/07 05:11:47;;;;;;;7.17;3.70;;;;;;;13.87;100.00;95869.81;5136142;27;20198;-84
2021/05/07 05:14:14;;;;;;;4.80;3.03;;;;;;;13.95;100.00;95899.53;5136131;27;20197;-84
2021/05/07 05:16:41;;;;;;;3.30;2.80;;;;;;;14.00;100.00;95896.34;5135985;27;20285;-86
2021/05/07 05:19:09;;;;;;;3.23;2.93;;;;;;;14.10;100.00;95904.78;5136013;27;20243;-84
2021/05/07 05:21:35;;;;;;;3.63;3.33;;;;;;;14.32;100.00;95918.81;5136353;27;20630;-85
2021/05/07 05:24:03;;;;;;;6.43;3.30;;;;;;;14.48;100.00;95934.41;5136232;27;20277;-85
2021/05/07 05:26:31;;;;;;;6.87;3.70;;;;;;;14.65;100.00;95942.06;5135940;27;20313;-85
2021/05/07 05:28:58;;;;;;;4.93;2.43;;;;;;;14.79;100.00;95917.38;5135612;27;20191;-85
2021/05/07 05:31:25;;;;;;;5.47;3.77;;;;;;;14.92;100.00;95930.66;5135803;27;20206;-85
2021/05/07 05:33:51;;;;;;;4.90;3.50;;;;;;;15.05;100.00;95951.13;5135851;27;20211;-85
2021/05/07 05:36:19;;;;;;;10.40;3.13;;;;;;;15.22;100.00;95967.50;5135825;27;20252;-85
2021/05/07 05:38:46;;;;;;;9.00;3.30;;;;;;;15.42;100.00;95964.97;5135900;27;20583;-85
2021/05/07 05:41:13;;;;;;;7.03;3.23;;;;;;;15.50;100.00;95990.47;5135781;27;20701;-85
2021/05/07 05:43:40;;;;;;;4.63;2.83;;;;;;;15.72;100.00;95994.69;5135787;27;20612;-85
2021/05/07 05:46:07;;;;;;;11.97;3.00;;;;;;;15.77;100.00;96017.94;5135376;27;20694;-84
2021/05/07 05:48:34;;;;;;;6.93;2.60;;;;;;;15.87;100.00;96005.16;5135714;27;20199;-85
2021/05/07 05:51:00;;;;;;;3.20;2.40;;;;;;;16.04;100.00;96011.75;5135525;27;20283;-85
2021/05/07 05:53:28;;;;;;;5.17;2.83;;;;;;;16.20;100.00;95983.22;5134716;27;20299;-85
2021/05/07 05:55:55;;;;;;;11.73;3.60;;;;;;;16.35;100.00;96000.59;5135755;27;20581;-86
2021/05/07 05:58:22;;;;;;;6.17;2.83;;;;;;;16.50;100.00;96026.13;5135420;27;20638;-85
2021/05/07 06:00:49;;;;;;;10.87;3.63;;;;;;;16.70;100.00;96036.78;5135314;27;20198;-86
2021/05/07 06:03:16;;;;;;;12.20;2.70;;;;;;;16.73;100.00;96058.44;5135015;27;20279;-83
2021/05/07 06:05:43;;;;;;;10.70;4.60;;;;;;;16.84;100.00;96049.88;5135056;27;20222;-83
2021/05/07 06:08:10;;;;;;;4.00;2.90;;;;;;;17.01;100.00;96060.13;5134767;27;20228;-84
2021/05/07 06:10:38;;;;;;;3.13;2.93;;;;;;;17.17;100.00;96065.00;5134930;27;20197;-84
2021/05/07 06:13:05;;;;;;;4.07;3.13;;;;;;;17.35;100.00;96081.16;5135224;27;20684;-84
2021/05/07 06:15:32;;;;;;;3.37;2.67;;;;;;;17.46;100.00;96105.47;5135340;27;20198;-84
2021/05/07 06:17:59;;;;;;;4.23;2.33;;;;;;;17.57;100.00;96123.44;5134925;27;20198;-85
2021/05/07 06:20:28;;;;;;;2.90;2.67;;;;;;;17.80;100.00;96131.84;5135125;27;20198;-85
2021/05/07 06:22:55;;;;;;;3.53;2.30;;;;;;;17.99;100.00;96129.34;5135058;27;20292;-85
2021/05/07 06:25:25;;;;;;;2.77;2.57;;;;;;;18.18;100.00;96139.06;5134442;27;20232;-84
2021/05/07 06:27:53;;;;;;;2.70;2.20;;;;;;;18.26;100.00;96136.22;5135172;27;20281;-84
2021/05/07 06:30:20;;;;;;;2.53;2.33;;;;;;;18.51;100.00;96144.28;5135364;27;20201;-85
2021/05/07 06:32:47;;;;;;;2.83;2.13;;;;;;;18.65;100.00;96158.38;5134491;27;20203;-85
2021/05/07 06:35:14;;;;;;;2.30;2.17;;;;;;;18.77;100.00;96188.66;5135252;27;20613;-86
2021/05/07 06:37:41;;;;;;;3.27;2.40;;;;;;;18.54;100.00;96202.44;5134925;27;20610;-84
2021/05/07 06:40:09;;;;;;;2.93;2.03;;;;;;;18.40;100.00;96203.50;5134913;27;20198;-85
2021/05/07 06:42:38;;;;;;;4.87;2.50;;;;;;;18.69;100.00;96196.03;5134581;27;20282;-85
2021/05/07 06:45:09;;;;;;;3.77;2.80;;;;;;;18.69;100.00;96191.50;5134320;27;20920;-85
2021/05/07 06:47:36;;;;;;;3.40;2.10;;;;;;;18.85;100.00;96200.09;5134435;27;20183;-85
2021/05/07 06:50:03;;;;;;;7.30;2.60;;;;;;;19.10;100.00;96206.31;5133775;27;20237;-84
2021/05/07 06:52:32;;;;;;;3.57;3.00;;;;;;;19.04;100.00;96199.16;5134473;27;20281;-87
2021/05/07 06:54:58;;;;;;;5.43;2.43;;;;;;;19.14;100.00;96198.69;5134606;27;20687;-84
2021/05/07 06:57:25;;;;;;;3.20;2.47;;;;;;;19.56;100.00;96194.53;5133547;27;20234;-83
2021/05/07 06:59:53;;;;;;;2.60;2.40;;;;;;;19.17;100.00;96209.75;5133410;27;20273;-85
2021/05/07 07:02:20;;;;;;;2.40;2.00;;;;;;;19.12;100.00;96206.91;5133189;27;20234;-84
2021/05/07 07:04:47;;;;;;;2.50;2.30;;;;;;;19.41;100.00;96204.69;5132418;27;20619;-84
2021/05/07 07:07:14;;;;;;;3.10;2.80;;;;;;;19.91;100.00;96186.88;5133871;27;20219;-84
2021/05/07 07:09:41;;;;;;;4.13;2.10;;;;;;;19.87;100.00;96200.88;5133312;27;20197;-84
2021/05/07 07:12:09;;;;;;;12.60;3.50;;;;;;;19.83;100.00;96207.69;5133612;27;20729;-84
2021/05/07 07:14:38;;;;;;;2.00;1.80;;;;;;;19.94;100.00;96201.63;5133334;27;20203;-85
2021/05/07 07:17:06;;;;;;;3.93;2.30;;;;;;;20.04;100.00;96201.13;5133574;27;20247;-86
2021/05/07 07:19:34;;;;;;;4.23;2.20;;;;;;;19.98;100.00;96199.34;5133207;27;20199;-84
2021/05/07 07:22:04;;;;;;;4.23;2.67;;;;;;;19.82;100.00;96198.06;5133415;27;20618;-84
2021/05/07 07:24:31;;;;;;;2.77;2.50;;;;;;;20.06;100.00;96189.22;5133052;27;20195;-84
2021/05/07 07:26:57;;;;;;;2.93;2.70;;;;;;;20.39;100.00;96194.19;5133189;27;20313;-85
2021/05/07 07:29:24;;;;;;;3.47;3.17;;;;;;;20.70;100.00;96183.63;5132658;27;20197;-84
2021/05/07 07:31:52;;;;;;;6.23;2.40;;;;;;;21.13;100.00;96180.81;5132754;27;20702;-84
2021/05/07 07:34:19;;;;;;;4.13;2.70;;;;;;;21.03;100.00;96181.34;5133104;27;20203;-84
2021/05/07 07:36:47;;;;;;;4.13;2.30;;;;;;;20.63;100.00;96183.69;5133010;27;20615;-85
2021/05/07 07:39:14;;;;;;;5.00;2.00;;;;;;;20.80;100.00;96179.38;5128629;27;20674;-84
2021/05/07 07:41:41;;;;;;;2.50;2.20;;;;;;;20.92;100.00;96181.28;5132347;27;20199;-84
2021/05/07 07:44:08;;;;;;;2.60;2.17;;;;;;;21.59;100.00;96172.09;5132968;27;20259;-84
2021/05/07 07:46:35;;;;;;;9.73;2.30;;;;;;;21.34;100.00;96176.84;5132285;27;20226;-85
2021/05/07 07:49:02;;;;;;;2.77;2.47;;;;;;;21.63;100.00;96167.13;5133766;27;20218;-86
2021/05/07 07:51:31;;;;;;;2.70;2.33;;;;;;;21.97;100.00;96157.47;5133494;27;20662;-86
2021/05/07 07:54:00;;;;;;;3.67;2.20;;;;;;;22.06;100.00;96153.41;5133357;27;20282;-87
2021/05/07 07:56:27;;;;;;;2.10;1.80;;;;;;;22.37;100.00;96148.72;5133637;27;20285;-88
2021/05/07 07:58:53;;;;;;;5.63;2.93;;;;;;;22.14;100.00;96152.25;5133517;27;20230;-90
2021/05/07 08:01:20;;;;;;;4.00;2.80;;;;;;;22.04;100.00;96158.19;5133960;27;20230;-90
2021/05/07 08:03:48;;;;;;;7.40;2.60;;;;;;;21.42;100.00;96173.81;5133409;27;20374;-86
2021/05/07 08:06:15;;;;;;;2.53;2.37;;;;;;;21.40;100.00;96165.19;5132370;27;20227;-84
2021/05/07 08:08:42;;;;;;;5.17;2.63;;;;;;;21.70;100.00;96157.13;5131661;27;20195;-83
2021/05/07 08:11:10;;;;;;;2.40;2.17;;;;;;;21.72;100.00;96156.91;5133561;27;20619;-85
2021/05/07 08:13:36;;;;;;;2.50;2.30;;;;;;;21.60;100.00;96171.06;5132879;27;20685;-84
2021/05/07 08:16:04;;;;;;;2.27;2.07;;;;;;;21.88;100.00;96158.88;5132917;27;20289;-85
2021/05/07 08:18:30;;;;;;;5.77;2.57;;;;;;;22.29;100.00;96157.13;5132873;27;20201;-83
2021/05/07 08:20:57;;;;;;;3.70;2.33;;;;;;;22.29;100.00;96162.50;5133256;27;20285;-85
2021/05/07 08:23:24;;;;;;;4.67;2.80;;;;;;;22.71;100.00;96159.59;5133396;27;20187;-85
2021/05/07 08:25:51;;;;;;;4.93;2.73;;;;;;;23.19;100.00;96150.34;5133207;27;20275;-85
2021/05/07 08:31:05;;;;;;;5.87;2.80;;;;;;;22.95;100.00;96138.94;5134787;27;20198;-86
2021/05/07 08:33:32;;;;;;;4.60;2.90;;;;;;;22.79;100.00;96145.81;5133545;27;20573;-86
2021/05/07 08:35:59;;;;;;;3.70;2.73;;;;;;;22.83;100.00;96148.88;5133538;27;20699;-85
2021/05/07 08:38:25;;;;;;;5.00;3.07;;;;;;;23.07;100.00;96147.75;5133069;27;20355;-86
2021/05/07 08:40:52;;;;;;;3.03;2.77;;;;;;;22.71;100.00;96152.38;5133015;27;20273;-85
2021/05/07 08:43:20;;;;;;;12.63;3.53;;;;;;;22.93;100.00;96141.84;5132925;27;20737;-85
2021/05/07 08:45:47;;;;;;;6.23;3.87;;;;;;;23.25;100.00;96136.00;5132855;27;20722;-85
2021/05/07 08:48:14;;;;;;;3.33;2.87;;;;;;;23.36;100.00;96127.06;5133033;27;20699;-86
2021/05/07 08:50:41;;;;;;;3.00;2.80;;;;;;;23.42;100.00;96125.28;5133193;27;20233;-89
2021/05/07 08:53:09;;;;;;;4.90;2.90;;;;;;;23.77;100.00;96122.38;5133181;27;20203;-85
2021/05/07 08:55:36;;;;;;;5.83;3.00;;;;;;;24.46;100.00;96113.13;5133593;27;20325;-86
2021/05/07 08:58:02;;;;;;;6.47;2.87;;;;;;;23.28;100.00;96124.78;5133309;27;20286;-82
2021/05/07 09:00:31;;;;;;;6.10;2.77;;;;;;;23.78;100.00;96107.88;5132511;27;20285;-83
2021/05/07 09:03:05;;;;;;;4.80;2.80;;;;;;;23.80;100.00;96103.09;5132544;27;20313;-86
2021/05/07 09:05:32;;;;;;;3.27;2.47;;;;;;;23.30;100.00;96106.56;5132919;27;20213;-85
2021/05/07 09:07:59;;;;;;;3.60;2.50;;;;;;;23.17;100.00;96112.22;5132747;27;20197;-85
2021/05/07 09:10:37;;;;;;;5.03;2.87;;;;;;;23.40;100.00;96114.78;5132783;27;20207;-86
2021/05/07 09:13:04;;;;;;;5.90;2.80;;;;;;;23.45;100.00;96092.59;5132731;27;20193;-86
2021/05/07 09:15:43;;;;;;;5.27;2.87;;;;;;;23.50;100.00;96095.34;5132831;27;20275;-86
2021/05/07 09:18:11;;;;;;;4.43;3.43;;;;;;;23.98;100.00;96082.41;5132622;27;20190;-85
2021/05/07 09:20:42;;;;;;;3.47;2.80;;;;;;;23.54;100.00;96087.63;5132789;27;20225;-85
2021/05/07 09:23:13;;;;;;;3.70;2.97;;;;;;;23.19;100.00;96099.41;5133217;27;20191;-86
2021/05/07 09:25:41;;;;;;;5.53;3.83;;;;;;;22.73;100.00;96111.97;5133018;27;20226;-86
2021/05/07 09:28:10;;;;;;;7.03;4.67;;;;;;;23.04;100.00;96088.44;5135337;27;20682;-88
2021/05/07 09:30:37;;;;;;;5.90;4.60;;;;;;;22.94;100.00;96089.06;5136074;27;20206;-87
2021/05/07 09:33:10;;;;;;;6.23;4.80;;;;;;;22.88;100.00;96088.13;5136425;27;20194;-87
2021/05/07 09:35:38;;;;;;;6.03;5.53;;;;;;;22.68;100.00;96069.00;5136549;27;20194;-88
2021/05/07 09:38:07;;;;;;;4.77;4.20;;;;;;;22.76;100.00;96068.63;5136274;27;20195;-87
2021/05/07 09:40:36;;;;;;;7.00;4.70;;;;;;;22.79;100.00;96060.06;5136443;27;20237;-88
2021/05/07 09:43:05;;;;;;;5.83;4.77;;;;;;;22.24;100.00;96060.66;5136350;27;20286;-85
2021/05/07 09:45:32;;;;;;;6.67;4.47;;;;;;;21.69;100.00;96066.41;5136307;27;20215;-87
2021/05/07 09:47:59;;;;;;;4.50;3.80;;;;;;;21.76;100.00;96053.75;5136415;27;20195;-86
2021/05/07 09:50:39;;;;;;;5.27;3.73;;;;;;;21.71;100.00;96058.97;5136157;27;20436;-85
2021/05/07 09:53:15;;;;;;;9.40;4.10;;;;;;;22.02;100.00;96039.84;5136710;27;20269;-86
2021/05/07 09:55:42;;;;;;;6.33;3.80;;;;;;;22.56;100.00;96052.97;5136455;27;20674;-86
2021/05/07 09:58:09;;;;;;;6.47;3.87;;;;;;;22.51;100.00;96058.22;5135970;27;20698;-85
2021/05/07 10:00:37;;;;;;;9.50;3.97;;;;;;;22.71;100.00;96058.59;5136088;27;20236;-86
2021/05/07 10:03:04;;;;;;;8.03;3.93;;;;;;;22.43;100.00;96059.41;5134717;27;20729;-83
2021/05/07 10:05:30;;;;;;;8.27;3.27;;;;;;;22.44;100.00;96063.72;5134659;27;20223;-83
2021/05/07 10:07:59;;;;;;;7.50;3.27;;;;;;;22.74;100.00;96049.28;5134673;27;20203;-84
2021/05/07 10:10:30;;;;;;;4.37;3.27;;;;;;;22.93;100.00;96056.09;5135223;27;20195;-84
2021/05/07 10:13:00;;;;;;;4.80;4.20;;;;;;;22.74;100.00;96046.59;5134782;27;20186;-84
2021/05/07 10:15:31;;;;;;;4.10;3.80;;;;;;;22.75;100.00;96024.09;5134731;27;20199;-83
2021/05/07 10:17:59;;;;;;;3.93;3.60;;;;;;;22.48;100.00;96053.34;5134477;27;20246;-84
2021/05/07 10:20:31;;;;;;;5.23;3.57;;;;;;;22.19;100.00;96044.50;5134504;27;20251;-83
2021/05/07 10:23:00;;;;;;;3.63;3.33;;;;;;;22.31;100.00;96047.97;5135226;27;20210;-84
2021/05/07 10:25:28;;;;;;;3.80;3.10;;;;;;;22.63;100.00;96056.31;5134538;27;20198;-84
2021/05/07 10:27:56;;;;;;;4.33;3.23;;;;;;;22.77;100.00;96064.88;5134689;27;20195;-83
2021/05/07 10:30:31;;;;;;;3.70;3.23;;;;;;;22.57;100.00;96067.19;5134297;27;20278;-83
2021/05/07 10:33:04;;;;;;;2.90;2.70;;;;;;;22.65;100.00;96059.56;5134511;27;20198;-84
2021/05/07 10:35:36;;;;;;;3.10;2.90;;;;;;;22.29;100.00;96061.56;5134145;27;20179;-84
2021/05/07 10:38:22;;;;;;;4.90;2.80;;;;;;;22.64;100.00;96047.22;5134469;27;20230;-84
2021/05/07 10:40:51;;;;;;;3.23;2.87;;;;;;;22.95;100.00;96037.88;5134274;27;20722;-84
2021/05/07 10:43:18;;;;;;;3.70;3.40;;;;;;;22.35;100.00;96030.34;5133698;27;20194;-85
2021/05/07 10:45:50;;;;;;;4.53;3.63;;;;;;;21.99;100.00;96018.91;5134055;27;20270;-84
2021/05/07 10:48:19;;;;;;;3.23;3.00;;;;;;;22.41;100.00;96001.78;5133938;27;20186;-83
2021/05/07 10:50:48;;;;;;;3.97;2.87;;;;;;;22.87;100.00;95982.00;5134282;27;20698;-85
2021/05/07 10:53:35;;;;;;;4.27;3.60;;;;;;;23.04;100.00;96014.19;5134298;27;20273;-85
2021/05/07 10:56:15;;;;;;;4.27;2.90;;;;;;;23.17;100.00;96013.03;5133734;27;20270;-85
2021/05/07 10:58:42;;;;;;;5.87;3.13;;;;;;;22.90;100.00;96035.09;5133793;27;20185;-85
2021/05/07 11:01:23;;;;;;;3.03;2.77;;;;;;;23.18;100.00;96023.53;5133859;27;20291;-85
2021/05/07 11:04:04;;;;;;;4.27;2.70;;;;;;;23.20;100.00;96029.44;5133718;27;20230;-85
2021/05/07 11:06:34;;;;;;;4.07;2.90;;;;;;;23.13;100.00;96041.41;5134085;27;20862;-85
2021/05/07 11:09:12;;;;;;;5.90;3.07;;;;;;;23.19;100.00;96025.16;5133585;27;20222;-85
2021/05/07 11:11:39;;;;;;;4.37;3.17;;;;;;;23.36;100.00;96011.75;5134151;27;20704;-86
2021/05/07 11:14:09;;;;;;;5.10;3.13;;;;;;;22.99;100.00;96020.25;5133868;27;20222;-85
2021/05/07 11:16:40;;;;;;;3.53;2.77;;;;;;;23.35;100.00;96001.28;5133564;27;20187;-86
2021/05/07 11:19:07;;;;;;;3.23;2.93;;;;;;;22.89;100.00;96022.75;5134295;27;20354;-86
2021/05/07 11:21:34;;;;;;;3.00;2.73;;;;;;;22.84;100.00;96006.59;5134335;27;20193;-87
2021/05/07 11:24:13;;;;;;;4.90;3.43;;;;;;;23.05;100.00;95990.88;5134364;27;20663;-87
2021/05/07 11:26:39;;;;;;;5.97;2.93;;;;;;;23.19;100.00;95981.44;5134033;27;20203;-89
2021/05/07 11:29:06;;;;;;;5.13;3.37;;;;;;;23.24;100.00;95993.06;5134091;27;20259;-87
2021/05/07 11:31:33;;;;;;;4.00;3.33;;;;;;;23.57;100.00;95980.66;5134248;27;20199;-86